Airfield :
LOGIN :

Register | Disclaimer

   EN    FR    IT 

 










Legend :    VFR   Marginal VFR   IFR   Intensive IFR   Very Intensive IFR
Visi :
Ceiling :
>= 8 km
>= 3000ft
5 to 8 km
1000 to 3000 ft
1500m to 5 km
500 to 1000 ft
800 to 1500m
200 to 500 ft
< 800m
< 200 ft
Symbols :   Thunderstorms  Fog  Heavy snow  Heavy precipitations  Wind > 20 kt
SIGMETs :     Misc.  Thunderstorms  Icing  Turbulence  Mountain Waves  Volcanic Ashes






- Airport Elevation : 16 ft
- IATA code : AAE


DABB - Annaba-Rabah Bitat

CURRENT METAR :
  • 192330Z 22004KT 9999 FEW023 09/08 Q1017

EXPIRED METARs :
  • 192300Z 21005KT 9999 FEW023 09/08 Q1017
  • 192230Z 22004KT 9999 FEW023 09/08 Q1017
  • 192200Z 23003KT 9999 FEW023 10/09 Q1017
  • 192130Z 18004KT 9999 FEW023 SCT033 11/09 Q1017
  • 192100Z 21003KT 9999 FEW023 SCT033 11/10 Q1017

TAF TAF DABB
Valid from the 19 at 18:00 until the 20 at 18:00 UTC


191700Z 1918/2018 26010KT 9999 FEW023 SCT033
TEMPO 1918/1922 5000 -RA FEW023TCU FEW026CB
BECMG 1919/1922 20006KT



MET'MAP, your aeronautical weather chart ! - Copyright ORBIFLY December 2007 - Disclaimer

ORBIFLY MET'MAP TEAM :

Programming & Development : Alexandra Zaïnal
Concept & Development : Baudouin d'Aumeries
Co-Development & Prog : Marc-Olivier Méhu
Technical & hardware support : Manuel Goepfert

Contact : metmap@orbifly.com




SOURCES & CREDITS :

   NOAA